Time;durP1;ratioP1;P1;durP2;ratioP2;P2;SDS_P1;SDS_P2;PMS_P1;PMS_P2;Temp;Humidity;BMP_temperature;BMP_pressure;BME280_temperature;BME280_humidity;BME280_pressure;Samples;Min_cycle;Max_cycle;Signal;HPM_P1;HPM_P2
2021/05/05 00:01:54;;;;;;;1.55;1.45;;;;;;;6.24;67.91;98608.44;5042975;28;20098;-58
2021/05/05 00:04:21;;;;;;;2.03;1.30;;;;;;;6.38;68.21;98613.28;5043187;28;20216;-59
2021/05/05 00:06:47;;;;;;;3.55;1.60;;;;;;;6.33;68.31;98603.09;5043270;28;20033;-58
2021/05/05 00:09:13;;;;;;;1.50;1.40;;;;;;;6.35;68.28;98610.78;5055709;28;20041;-57
2021/05/05 00:11:41;;;;;;;1.85;1.48;;;;;;;6.27;67.83;98617.81;5062978;28;20070;-58
2021/05/05 00:14:11;;;;;;;2.20;1.48;;;;;;;6.35;67.66;98601.31;5062804;28;20037;-58
2021/05/05 00:16:37;;;;;;;1.98;1.27;;;;;;;6.30;68.00;98622.88;5062776;28;20029;-58
2021/05/05 00:19:04;;;;;;;1.48;1.38;;;;;;;6.47;67.39;98612.22;5051452;28;20386;-58
2021/05/05 00:21:29;;;;;;;1.95;1.50;;;;;;;6.24;68.43;98616.13;5042850;28;20036;-58
2021/05/05 00:23:55;;;;;;;2.75;1.40;;;;;;;6.37;67.12;98622.72;5042753;28;20086;-58
2021/05/05 00:26:21;;;;;;;1.98;1.52;;;;;;;6.41;67.79;98612.38;5042836;28;20060;-57
2021/05/05 00:28:47;;;;;;;2.47;1.65;;;;;;;6.30;68.52;98623.75;5051208;28;20079;-58
2021/05/05 00:31:13;;;;;;;1.48;1.38;;;;;;;6.49;67.35;98615.63;5061881;28;20033;-58
2021/05/05 00:33:39;;;;;;;1.33;1.23;;;;;;;6.26;67.71;98622.09;5062651;28;20054;-57
2021/05/05 00:36:05;;;;;;;2.88;1.40;;;;;;;6.22;67.34;98623.88;5062547;28;20035;-57
2021/05/05 00:38:31;;;;;;;2.85;1.25;;;;;;;6.29;66.99;98624.63;5056240;28;20250;-58
2021/05/05 00:40:56;;;;;;;3.10;1.23;;;;;;;6.15;67.22;98624.91;5042620;28;20029;-58
2021/05/05 00:43:22;;;;;;;2.20;1.20;;;;;;;6.28;67.38;98619.50;5042705;28;20073;-58
2021/05/05 00:45:48;;;;;;;1.40;1.30;;;;;;;6.08;66.66;98630.19;5042522;28;20344;-60
2021/05/05 00:48:14;;;;;;;1.40;1.30;;;;;;;5.95;67.58;98634.72;5046429;28;20040;-58
2021/05/05 00:50:39;;;;;;;1.75;1.25;;;;;;;6.16;66.23;98644.59;5062508;28;20217;-58
2021/05/05 00:53:05;;;;;;;1.92;1.20;;;;;;;6.09;66.78;98637.03;5062363;28;20025;-58
2021/05/05 00:55:31;;;;;;;3.38;1.20;;;;;;;5.96;66.83;98647.53;5062507;28;20245;-58
2021/05/05 00:57:57;;;;;;;2.72;1.40;;;;;;;5.95;67.35;98656.09;5061196;28;20037;-58
2021/05/05 01:00:23;;;;;;;1.33;1.20;;;;;;;6.17;66.48;98655.69;5042471;28;20033;-58
2021/05/05 01:02:49;;;;;;;2.83;1.20;;;;;;;6.01;66.11;98650.91;5042278;28;20321;-58
2021/05/05 01:05:15;;;;;;;3.38;1.60;;;;;;;5.99;66.71;98646.66;5042452;28;20061;-58
2021/05/05 01:07:41;;;;;;;1.35;1.20;;;;;;;5.92;66.97;98655.34;5042472;28;20071;-58
2021/05/05 01:10:10;;;;;;;1.20;1.10;;;;;;;5.73;66.68;98647.97;5060997;28;20028;-58
2021/05/05 01:12:35;;;;;;;1.45;1.25;;;;;;;6.03;66.58;98664.53;5062061;28;20032;-58
2021/05/05 01:15:02;;;;;;;2.58;1.30;;;;;;;6.15;65.79;98654.91;5062256;28;20329;-58
2021/05/05 01:17:29;;;;;;;2.17;1.40;;;;;;;6.02;65.75;98664.59;5062127;28;20213;-57
2021/05/05 01:19:55;;;;;;;1.40;1.30;;;;;;;6.12;66.30;98653.22;5045232;28;20032;-58
2021/05/05 01:22:21;;;;;;;1.58;1.48;;;;;;;5.97;65.81;98654.41;5042318;28;20025;-58
2021/05/05 01:24:46;;;;;;;1.70;1.50;;;;;;;5.99;66.11;98668.06;5042256;28;20334;-57
2021/05/05 01:27:12;;;;;;;1.40;1.30;;;;;;;6.21;66.70;98665.91;5042142;28;20031;-58
2021/05/05 01:29:38;;;;;;;1.40;1.30;;;;;;;6.06;66.08;98661.06;5056294;28;20096;-57
2021/05/05 01:32:05;;;;;;;3.10;1.40;;;;;;;6.28;65.65;98670.91;5062419;28;20048;-57
2021/05/05 01:34:33;;;;;;;3.80;1.52;;;;;;;5.80;65.71;98621.28;5061914;28;20033;-58
2021/05/05 01:36:59;;;;;;;2.50;1.50;;;;;;;5.99;66.74;98678.34;5062028;28;20309;-57
2021/05/05 01:39:25;;;;;;;4.40;1.30;;;;;;;5.98;66.49;98670.66;5049812;28;20067;-57
2021/05/05 01:41:51;;;;;;;2.53;1.63;;;;;;;5.89;65.83;98687.06;5044136;28;20092;-57
2021/05/05 01:44:28;;;;;;;3.03;1.70;;;;;;;6.01;66.14;98681.75;5045725;28;20073;-58
2021/05/05 01:46:54;;;;;;;1.35;1.25;;;;;;;5.96;66.09;98682.66;5045692;28;20033;-57
2021/05/05 01:49:25;;;;;;;1.70;1.50;;;;;;;5.96;65.61;98691.22;5056778;28;20063;-57
2021/05/05 01:51:53;;;;;;;2.40;1.40;;;;;;;6.07;65.15;98690.19;5065572;28;20033;-58
2021/05/05 01:54:20;;;;;;;2.22;1.58;;;;;;;5.98;65.57;98694.63;5064383;28;20033;-57
2021/05/05 01:56:46;;;;;;;3.03;1.70;;;;;;;6.11;65.61;98697.81;5065498;28;20025;-58
2021/05/05 01:59:11;;;;;;;1.85;1.48;;;;;;;6.13;65.91;98693.50;5055286;28;20080;-57
2021/05/05 02:01:37;;;;;;;2.05;1.60;;;;;;;6.09;65.50;98698.72;5045371;28;20038;-58
2021/05/05 02:04:03;;;;;;;2.10;1.27;;;;;;;6.09;65.82;98699.56;5045298;28;20033;-58
2021/05/05 02:06:30;;;;;;;1.55;1.45;;;;;;;5.83;65.88;98697.47;5045347;28;20322;-58
2021/05/05 02:08:58;;;;;;;1.63;1.40;;;;;;;6.02;66.01;98703.97;5052742;28;20036;-58
2021/05/05 02:11:24;;;;;;;1.52;1.40;;;;;;;6.11;64.81;98702.94;5065215;28;20033;-59
2021/05/05 02:13:50;;;;;;;1.80;1.60;;;;;;;6.05;65.41;98708.22;5065357;28;20159;-58
2021/05/05 02:16:16;;;;;;;2.35;1.65;;;;;;;6.05;64.97;98708.22;5065217;28;20033;-58
2021/05/05 02:18:42;;;;;;;2.15;1.08;;;;;;;6.07;64.56;98708.19;5059568;28;20029;-58
2021/05/05 02:21:07;;;;;;;2.55;1.50;;;;;;;6.13;64.64;98721.78;5045054;28;20110;-58
2021/05/05 02:23:33;;;;;;;1.73;1.33;;;;;;;6.13;64.69;98711.50;5045001;28;20033;-58
2021/05/05 02:26:00;;;;;;;1.90;1.70;;;;;;;6.12;64.56;98720.06;5045077;28;20053;-59
2021/05/05 02:28:27;;;;;;;3.35;1.75;;;;;;;5.86;65.53;98707.69;5047808;28;20086;-58
2021/05/05 02:30:53;;;;;;;2.85;1.50;;;;;;;6.01;65.63;98722.00;5064962;28;20029;-59
2021/05/05 02:33:19;;;;;;;1.83;1.42;;;;;;;6.11;64.80;98730.38;5064743;28;20263;-59
2021/05/05 02:35:46;;;;;;;1.60;1.50;;;;;;;5.89;64.65;98733.31;5064715;28;20306;-58
2021/05/05 02:38:11;;;;;;;1.63;1.50;;;;;;;5.83;65.01;98736.00;5064018;28;20032;-59
2021/05/05 02:40:37;;;;;;;2.28;1.50;;;;;;;5.92;65.20;98742.69;5044830;28;20030;-59
2021/05/05 02:43:03;;;;;;;1.83;1.65;;;;;;;5.98;65.24;98733.16;5044562;28;20017;-58
2021/05/05 02:45:30;;;;;;;2.08;1.52;;;;;;;6.43;64.15;98740.03;5044637;28;20044;-59
2021/05/05 02:47:56;;;;;;;1.73;1.48;;;;;;;6.41;63.78;98746.09;5044577;28;20337;-58
2021/05/05 02:50:22;;;;;;;2.15;1.60;;;;;;;6.66;63.43;98752.44;5062742;28;20029;-58
2021/05/05 02:52:47;;;;;;;1.60;1.50;;;;;;;6.79;61.79;98731.59;5063499;28;20025;-58
2021/05/05 02:55:13;;;;;;;2.20;1.60;;;;;;;7.10;61.18;98744.63;5064109;28;20194;-58
2021/05/05 02:57:39;;;;;;;3.17;1.70;;;;;;;7.54;61.12;98752.19;5064206;28;20036;-58
2021/05/05 03:00:07;;;;;;;2.35;1.50;;;;;;;7.64;59.86;98696.13;5048028;28;20055;-58
2021/05/05 03:02:33;;;;;;;1.83;1.27;;;;;;;7.98;59.40;98751.97;5044041;28;20041;-58
2021/05/05 03:04:59;;;;;;;3.65;1.80;;;;;;;8.32;57.70;98756.22;5044044;28;20040;-57
2021/05/05 03:07:25;;;;;;;2.75;1.42;;;;;;;8.57;57.89;98754.69;5043999;28;20030;-58
2021/05/05 03:09:51;;;;;;;1.48;1.27;;;;;;;8.26;57.44;98764.97;5057665;28;20029;-58
2021/05/05 03:12:17;;;;;;;3.03;1.40;;;;;;;8.38;56.74;98762.06;5063837;28;20039;-58
2021/05/05 03:14:43;;;;;;;1.73;1.35;;;;;;;8.58;55.97;98752.94;5063607;28;20048;-58
2021/05/05 03:17:09;;;;;;;1.55;1.30;;;;;;;8.67;57.01;98751.84;5064030;28;20025;-58
2021/05/05 03:19:35;;;;;;;1.40;1.30;;;;;;;8.46;56.98;98759.28;5052476;28;20037;-58
2021/05/05 03:22:01;;;;;;;2.45;1.52;;;;;;;8.86;56.47;98758.13;5043941;28;20025;-58
2021/05/05 03:24:26;;;;;;;1.40;1.30;;;;;;;9.13;55.58;98763.38;5043890;28;20030;-59
2021/05/05 03:26:52;;;;;;;2.10;1.63;;;;;;;9.22;54.53;98750.19;5043831;28;20060;-57
2021/05/05 03:29:18;;;;;;;1.85;1.50;;;;;;;9.45;55.21;98764.13;5052274;28;20032;-57
2021/05/05 03:31:44;;;;;;;1.30;1.20;;;;;;;9.86;53.14;98764.50;5063730;28;20095;-57
2021/05/05 03:34:10;;;;;;;1.63;1.40;;;;;;;9.30;52.17;98766.28;5063483;28;20029;-58
2021/05/05 03:36:36;;;;;;;1.83;1.30;;;;;;;9.14;51.87;98749.56;5063581;28;20330;-58
2021/05/05 03:39:04;;;;;;;2.25;1.20;;;;;;;8.87;52.78;98728.84;5057287;28;20030;-58
2021/05/05 03:41:30;;;;;;;2.92;1.30;;;;;;;9.42;52.73;98767.66;5043275;28;20025;-58
2021/05/05 03:43:56;;;;;;;1.92;1.23;;;;;;;9.58;52.70;98762.00;5043521;28;20029;-57
2021/05/05 03:46:22;;;;;;;2.67;1.80;;;;;;;9.20;53.55;98759.72;5043393;28;20029;-57
2021/05/05 03:48:48;;;;;;;1.75;1.40;;;;;;;9.17;52.40;98774.47;5047293;28;20024;-58
2021/05/05 03:51:14;;;;;;;1.63;1.10;;;;;;;8.70;53.46;98769.81;5063297;28;20048;-57
2021/05/05 03:53:39;;;;;;;3.22;1.30;;;;;;;8.43;53.42;98775.66;5063249;28;20033;-57
2021/05/05 03:56:05;;;;;;;3.45;1.50;;;;;;;8.36;54.74;98784.47;5063122;28;20020;-58
2021/05/05 03:58:31;;;;;;;4.13;1.65;;;;;;;8.56;54.03;98794.28;5060378;28;20090;-58
2021/05/05 04:00:56;;;;;;;1.52;1.33;;;;;;;8.89;53.35;98794.22;5043197;28;20033;-58
2021/05/05 04:03:22;;;;;;;3.28;1.52;;;;;;;8.70;55.06;98796.47;5042881;28;20083;-58
2021/05/05 04:05:48;;;;;;;4.90;1.48;;;;;;;8.90;53.13;98793.31;5042846;28;20041;-58
2021/05/05 04:08:14;;;;;;;3.53;1.50;;;;;;;8.60;53.24;98797.63;5042977;28;20039;-58
2021/05/05 04:10:39;;;;;;;2.58;1.20;;;;;;;8.48;54.59;98806.56;5060503;28;20353;-58
2021/05/05 04:13:05;;;;;;;1.40;1.30;;;;;;;8.23;54.94;98806.31;5062915;28;20037;-58
2021/05/05 04:15:31;;;;;;;1.75;1.60;;;;;;;7.77;56.22;98792.88;5062531;28;20322;-58
2021/05/05 04:17:57;;;;;;;1.80;1.35;;;;;;;7.93;55.60;98817.38;5062767;28;20028;-58
2021/05/05 04:20:23;;;;;;;1.70;1.60;;;;;;;8.04;56.46;98818.84;5046293;28;20321;-57
2021/05/05 04:22:49;;;;;;;1.90;1.40;;;;;;;7.84;54.88;98804.72;5042879;28;20033;-57
2021/05/05 04:25:17;;;;;;;2.08;1.40;;;;;;;7.88;56.17;98815.78;5042640;28;20068;-58
2021/05/05 04:27:44;;;;;;;2.72;1.65;;;;;;;7.90;56.93;98822.59;5042538;28;20033;-57
2021/05/05 04:30:13;;;;;;;4.28;1.60;;;;;;;8.23;55.28;98808.91;5056818;28;20060;-58
2021/05/05 04:32:39;;;;;;;3.20;1.40;;;;;;;8.03;56.22;98815.41;5062594;28;20029;-57
2021/05/05 04:35:06;;;;;;;2.83;1.20;;;;;;;7.76;57.12;98809.22;5062551;28;20237;-58
2021/05/05 04:37:32;;;;;;;2.63;1.33;;;;;;;8.22;53.80;98771.97;5062414;28;20120;-58
2021/05/05 04:40:00;;;;;;;2.28;1.42;;;;;;;8.96;52.60;98806.06;5049945;28;20033;-58
2021/05/05 04:42:26;;;;;;;3.67;1.27;;;;;;;9.54;51.73;98794.00;5042497;28;20052;-58
2021/05/05 04:44:52;;;;;;;2.10;1.40;;;;;;;9.33;53.26;98829.94;5042425;28;20341;-58
2021/05/05 04:47:18;;;;;;;3.33;1.80;;;;;;;9.34;51.92;98823.88;5042383;28;20032;-58
2021/05/05 04:49:43;;;;;;;1.40;1.30;;;;;;;10.55;49.25;98820.00;5052674;28;20035;-59
2021/05/05 04:52:09;;;;;;;2.22;1.58;;;;;;;10.83;47.03;98814.66;5062397;28;20249;-59
2021/05/05 04:54:35;;;;;;;3.55;1.50;;;;;;;10.57;48.29;98833.72;5062202;28;20028;-59
2021/05/05 04:57:01;;;;;;;2.03;1.65;;;;;;;11.25;47.07;98828.66;5062319;28;20298;-58
2021/05/05 04:59:26;;;;;;;1.98;1.27;;;;;;;11.49;46.53;98824.28;5054374;28;20071;-59
2021/05/05 05:01:52;;;;;;;1.98;1.40;;;;;;;11.80;45.82;98821.31;5042335;28;20056;-59
2021/05/05 05:04:18;;;;;;;1.55;1.40;;;;;;;12.42;44.82;98821.38;5041955;28;20310;-60
2021/05/05 05:06:43;;;;;;;2.05;1.65;;;;;;;12.72;45.14;98824.38;5042219;28;20033;-58
2021/05/05 05:09:09;;;;;;;3.83;1.60;;;;;;;11.61;45.66;98838.50;5047284;28;20037;-58
2021/05/05 05:11:35;;;;;;;1.73;1.30;;;;;;;12.08;43.96;98821.06;5061989;28;20028;-59
2021/05/05 05:14:00;;;;;;;1.95;1.33;;;;;;;13.46;44.60;98820.19;5062092;28;20049;-58
2021/05/05 05:16:26;;;;;;;1.95;1.50;;;;;;;12.40;43.40;98820.59;5063636;28;20043;-59
2021/05/05 05:18:52;;;;;;;2.10;1.30;;;;;;;13.11;43.25;98815.72;5063661;28;20024;-60
2021/05/05 05:21:19;;;;;;;1.75;1.65;;;;;;;13.61;41.72;98814.28;5046085;28;20409;-59
2021/05/05 05:23:45;;;;;;;3.80;1.70;;;;;;;14.02;40.76;98815.75;5045957;28;20052;-59
2021/05/05 05:26:11;;;;;;;2.95;1.50;;;;;;;14.46;40.74;98809.22;5046198;28;20056;-59
2021/05/05 05:28:37;;;;;;;5.25;2.00;;;;;;;14.93;40.06;98820.72;5046335;28;20025;-60
2021/05/05 05:31:03;;;;;;;6.25;1.80;;;;;;;14.96;40.44;98816.19;5066136;28;20025;-58
2021/05/05 05:33:29;;;;;;;2.38;1.50;;;;;;;15.37;37.52;98809.63;5065933;28;20024;-59
2021/05/05 05:35:55;;;;;;;2.45;1.80;;;;;;;15.32;38.80;98815.09;5065749;28;20037;-59
2021/05/05 05:38:21;;;;;;;2.10;1.10;;;;;;;15.25;39.16;98821.59;5065854;28;20035;-58
2021/05/05 05:40:47;;;;;;;3.08;1.67;;;;;;;14.53;38.90;98814.97;5047907;28;20310;-59
2021/05/05 05:43:12;;;;;;;3.38;1.70;;;;;;;14.66;39.03;98816.88;5045734;28;20075;-59
2021/05/05 05:45:38;;;;;;;2.03;1.60;;;;;;;14.76;39.34;98825.03;5045660;28;20262;-58
2021/05/05 05:48:05;;;;;;;1.92;1.40;;;;;;;13.34;40.47;98820.75;5045659;28;20100;-59
2021/05/05 05:50:31;;;;;;;1.90;1.42;;;;;;;13.89;40.92;98820.72;5061213;28;20039;-59
2021/05/05 05:52:57;;;;;;;5.40;1.60;;;;;;;14.07;40.13;98812.94;5065545;28;20029;-59
2021/05/05 05:55:25;;;;;;;5.78;1.60;;;;;;;14.04;39.04;98820.88;5065302;28;20031;-60
2021/05/05 05:57:52;;;;;;;3.13;1.60;;;;;;;14.22;39.98;98816.53;5065436;28;20040;-59
2021/05/05 06:00:20;;;;;;;3.75;1.48;;;;;;;13.69;39.73;98816.50;5051961;28;20021;-59
2021/05/05 06:02:45;;;;;;;1.95;1.48;;;;;;;13.50;40.35;98823.50;5045186;28;20195;-57
2021/05/05 06:05:12;;;;;;;2.08;1.60;;;;;;;14.12;40.01;98821.34;5045359;28;20032;-58
2021/05/05 06:07:39;;;;;;;3.25;1.70;;;;;;;13.86;39.44;98820.03;5045072;28;20084;-58
2021/05/05 06:10:07;;;;;;;2.00;1.63;;;;;;;14.10;38.65;98825.81;5056398;28;20054;-59
2021/05/05 06:12:33;;;;;;;2.88;2.53;;;;;;;12.86;41.97;98848.91;5065185;28;20049;-59
2021/05/05 06:14:59;;;;;;;2.38;2.00;;;;;;;13.32;40.81;98830.38;5064658;28;20044;-59
2021/05/05 06:17:25;;;;;;;2.47;1.75;;;;;;;13.79;40.06;98829.91;5065099;28;20056;-58
2021/05/05 06:19:51;;;;;;;3.42;2.58;;;;;;;12.94;40.78;98842.47;5055635;28;20085;-60
2021/05/05 06:22:17;;;;;;;2.72;1.58;;;;;;;12.91;40.21;98837.41;5044942;28;20025;-59
2021/05/05 06:24:44;;;;;;;2.13;1.50;;;;;;;13.97;39.88;98831.59;5043840;28;20021;-58
2021/05/05 06:27:09;;;;;;;5.90;2.05;;;;;;;14.45;39.17;98841.41;5044043;28;20025;-58
2021/05/05 06:29:35;;;;;;;2.75;1.70;;;;;;;14.49;37.89;98835.09;5051173;28;20032;-59
2021/05/05 06:32:01;;;;;;;4.57;1.50;;;;;;;14.52;37.38;98847.16;5063467;28;20032;-58
2021/05/05 06:34:27;;;;;;;2.42;1.48;;;;;;;15.01;37.38;98836.78;5064619;28;20044;-58
2021/05/05 06:36:52;;;;;;;2.47;1.58;;;;;;;15.96;37.13;98843.78;5064409;28;20029;-58
2021/05/05 06:39:18;;;;;;;3.40;1.80;;;;;;;14.85;36.83;98852.41;5060304;28;20021;-58
2021/05/05 06:41:44;;;;;;;2.28;1.77;;;;;;;14.78;37.86;98845.84;5060205;28;20063;-58
2021/05/05 06:44:10;;;;;;;2.88;1.65;;;;;;;13.79;39.26;98858.53;5044604;28;20211;-59
2021/05/05 06:46:42;;;;;;;2.45;1.65;;;;;;;13.71;39.24;98868.47;5044548;28;20033;-58
2021/05/05 06:49:09;;;;;;;1.95;1.63;;;;;;;13.59;40.01;98865.53;5047028;28;20033;-58
2021/05/05 06:51:36;;;;;;;3.35;1.58;;;;;;;13.70;40.28;98865.03;5064456;28;20035;-59
2021/05/05 06:54:03;;;;;;;4.50;1.60;;;;;;;14.42;37.45;98862.41;5064583;28;20021;-59
2021/05/05 06:56:29;;;;;;;1.90;1.73;;;;;;;13.85;37.74;98866.03;5064399;28;20027;-59
2021/05/05 06:58:55;;;;;;;4.65;1.80;;;;;;;14.50;36.76;98873.28;5063651;28;20025;-59
2021/05/05 07:01:21;;;;;;;4.35;1.67;;;;;;;14.18;38.91;98862.72;5044099;28;20033;-58
2021/05/05 07:03:47;;;;;;;3.15;1.83;;;;;;;14.31;38.03;98861.19;5044282;28;20269;-58
2021/05/05 07:06:13;;;;;;;2.28;1.40;;;;;;;14.44;36.81;98857.97;5043920;28;20049;-59
2021/05/05 07:08:39;;;;;;;2.65;1.80;;;;;;;13.89;38.72;98851.97;5044398;28;20033;-59
2021/05/05 07:11:04;;;;;;;2.95;1.60;;;;;;;14.19;39.17;98859.19;5062134;28;20029;-60
2021/05/05 07:13:30;;;;;;;2.25;1.70;;;;;;;13.98;37.82;98861.09;5063741;28;20033;-58
2021/05/05 07:15:56;;;;;;;2.47;1.83;;;;;;;14.50;37.40;98871.50;5063668;28;20033;-59
2021/05/05 07:18:22;;;;;;;2.67;1.50;;;;;;;14.14;37.10;98863.78;5063536;28;20337;-59
2021/05/05 07:20:48;;;;;;;2.85;1.42;;;;;;;14.06;38.37;98855.50;5048185;28;20031;-58
2021/05/05 07:23:13;;;;;;;3.28;1.58;;;;;;;13.79;37.47;98876.75;5043857;28;20037;-58
2021/05/05 07:25:39;;;;;;;2.03;1.65;;;;;;;14.84;37.26;98868.97;5043912;28;20025;-58
2021/05/05 07:28:05;;;;;;;2.50;1.73;;;;;;;14.26;37.14;98876.19;5043801;28;20025;-58
2021/05/05 07:30:31;;;;;;;3.45;1.77;;;;;;;14.05;38.50;98872.91;5056710;28;20274;-59
2021/05/05 07:32:57;;;;;;;5.18;1.65;;;;;;;13.99;38.87;98891.41;5063260;28;20041;-59
2021/05/05 07:35:24;;;;;;;3.60;1.80;;;;;;;14.25;39.88;98877.13;5063401;28;20047;-58
2021/05/05 07:48:12;;;;;;;2.78;1.80;;;;;;;13.97;38.96;98886.28;5043325;28;20022;-57
2021/05/05 07:50:38;;;;;;;5.38;2.20;;;;;;;14.80;37.20;98883.09;5056659;28;20096;-58
2021/05/05 07:53:05;;;;;;;6.35;1.83;;;;;;;14.60;37.87;98881.47;5063116;28;20035;-59
2021/05/05 07:55:31;;;;;;;4.00;1.80;;;;;;;14.08;38.91;98887.50;5062951;28;20045;-59
2021/05/05 07:57:58;;;;;;;2.60;1.70;;;;;;;14.12;38.30;98879.50;5063050;28;20032;-59
2021/05/05 08:00:24;;;;;;;4.40;1.63;;;;;;;13.71;39.21;98879.72;5051740;28;20025;-59
2021/05/05 08:02:50;;;;;;;2.47;1.90;;;;;;;13.79;40.67;98895.78;5042895;28;20032;-58
2021/05/05 08:05:15;;;;;;;5.78;1.75;;;;;;;14.00;37.95;98903.50;5043188;28;20037;-58
2021/05/05 08:07:41;;;;;;;2.70;1.70;;;;;;;14.08;39.31;98879.69;5043020;28;20028;-59
2021/05/05 08:10:08;;;;;;;2.42;1.80;;;;;;;13.94;38.41;98890.81;5051405;28;20309;-59
2021/05/05 08:12:35;;;;;;;2.85;1.88;;;;;;;13.49;37.07;98887.69;5062850;28;20036;-59
2021/05/05 08:15:01;;;;;;;3.67;2.10;;;;;;;13.85;38.92;98893.84;5062487;28;20053;-59
2021/05/05 08:17:28;;;;;;;2.88;1.90;;;;;;;13.86;37.45;98877.31;5062746;28;20271;-59
2021/05/05 08:19:54;;;;;;;3.25;2.15;;;;;;;13.89;37.79;98880.59;5055991;28;20073;-58
2021/05/05 08:22:20;;;;;;;4.63;1.83;;;;;;;13.36;38.81;98884.81;5042528;28;20218;-58
2021/05/05 08:24:46;;;;;;;5.40;2.10;;;;;;;13.49;37.68;98873.84;5042591;28;20032;-59
2021/05/05 08:27:12;;;;;;;3.53;1.95;;;;;;;13.47;38.50;98897.31;5042784;28;20318;-58
2021/05/05 08:29:37;;;;;;;5.95;2.28;;;;;;;13.55;39.16;98895.22;5046653;28;20044;-59
2021/05/05 08:32:04;;;;;;;5.28;1.90;;;;;;;13.79;38.25;98887.16;5062398;28;20040;-59
2021/05/05 08:34:30;;;;;;;5.25;2.30;;;;;;;13.96;38.07;98894.16;5062455;28;20033;-59
2021/05/05 08:36:56;;;;;;;5.90;1.95;;;;;;;14.22;37.55;98890.28;5062524;28;20092;-61
2021/05/05 08:39:23;;;;;;;4.93;2.08;;;;;;;14.41;38.24;98889.34;5060413;28;20028;-58
2021/05/05 08:41:50;;;;;;;6.25;2.38;;;;;;;14.70;38.34;98894.91;5042448;28;20037;-58
2021/05/05 08:44:16;;;;;;;3.47;2.05;;;;;;;14.23;37.60;98876.34;5042196;28;20032;-58
2021/05/05 08:46:45;;;;;;;2.42;1.73;;;;;;;14.31;36.81;98895.03;5042134;28;20076;-60
2021/05/05 08:49:12;;;;;;;3.15;2.00;;;;;;;13.98;36.48;98893.19;5042540;28;20036;-59
2021/05/05 08:51:38;;;;;;;2.10;1.90;;;;;;;13.85;36.98;98899.88;5061317;28;20029;-59
2021/05/05 08:54:07;;;;;;;5.60;1.98;;;;;;;13.94;37.32;98901.22;5062143;28;20033;-59
2021/05/05 08:56:35;;;;;;;4.38;2.05;;;;;;;13.84;38.49;98897.34;5062018;28;20025;-58
2021/05/05 08:59:08;;;;;;;6.93;2.22;;;;;;;13.85;38.23;98896.44;5062043;28;20033;-58
2021/05/05 09:01:35;;;;;;;4.35;2.13;;;;;;;14.20;37.88;98906.91;5042295;28;20060;-59
2021/05/05 09:04:01;;;;;;;3.45;2.20;;;;;;;13.74;37.58;98883.94;5041938;28;20104;-58
2021/05/05 09:06:53;;;;;;;4.72;1.83;;;;;;;13.82;38.43;98900.03;5040998;28;20300;-59
2021/05/05 09:09:44;;;;;;;3.30;2.07;;;;;;;14.08;39.29;98905.72;5042776;28;20030;-59
2021/05/05 09:12:17;;;;;;;3.45;2.30;;;;;;;13.81;39.44;98899.19;5062068;28;20028;-58
2021/05/05 09:14:51;;;;;;;1.98;1.75;;;;;;;13.89;38.39;98909.22;5062008;28;20041;-59
2021/05/05 09:17:22;;;;;;;3.25;1.95;;;;;;;13.92;39.47;98895.22;5061937;28;20381;-59
2021/05/05 09:20:06;;;;;;;3.05;1.90;;;;;;;14.22;39.82;98885.06;5056319;28;20029;-59
2021/05/05 09:22:56;;;;;;;4.05;2.05;;;;;;;14.22;39.80;98876.41;5042145;28;20336;-59
2021/05/05 09:25:29;;;;;;;1.83;1.70;;;;;;;14.26;38.86;98877.97;5041965;28;20037;-58
2021/05/05 09:28:18;;;;;;;3.78;2.03;;;;;;;15.02;37.39;98886.25;5042008;28;20029;-58
2021/05/05 09:30:51;;;;;;;2.95;1.83;;;;;;;14.81;36.62;98882.16;5053700;28;20029;-59
2021/05/05 09:33:27;;;;;;;3.63;1.70;;;;;;;14.28;36.33;98843.09;5061881;28;20025;-58
2021/05/05 09:35:55;;;;;;;6.38;2.60;;;;;;;14.73;39.42;98892.16;5061756;28;20071;-59
2021/05/05 09:38:21;;;;;;;3.45;1.75;;;;;;;14.53;37.50;98877.50;5061837;28;20029;-58
2021/05/05 09:40:58;;;;;;;1.48;1.35;;;;;;;14.01;37.88;98876.56;5049402;28;20047;-59
2021/05/05 09:43:24;;;;;;;1.67;1.58;;;;;;;14.23;37.50;98894.56;5041696;28;20033;-58
2021/05/05 09:45:50;;;;;;;2.40;1.45;;;;;;;14.64;37.92;98896.91;5041504;28;20033;-59
2021/05/05 09:48:22;;;;;;;5.47;1.95;;;;;;;14.00;37.55;98853.22;5041586;28;20385;-58
2021/05/05 09:50:48;;;;;;;;;;;;;;;14.38;38.60;98892.13;5054344;28;20056;-58
2021/05/05 09:53:24;;;;;;;3.53;2.10;;;;;;;14.31;38.32;98847.31;5061630;28;20109;-59
2021/05/05 09:55:53;;;;;;;2.95;1.70;;;;;;;14.17;38.06;98901.88;5061656;28;20154;-58
2021/05/05 09:58:32;;;;;;;3.67;1.60;;;;;;;14.41;37.85;98894.56;5061826;28;20040;-59
2021/05/05 10:01:04;;;;;;;1.98;1.88;;;;;;;14.49;38.90;98910.66;5048410;28;20101;-60
2021/05/05 10:03:41;;;;;;;2.70;1.88;;;;;;;13.95;37.63;98901.13;5044652;28;20271;-58
2021/05/05 10:06:31;;;;;;;5.13;1.85;;;;;;;13.83;36.84;98901.72;5045181;28;20033;-60
2021/05/05 10:09:01;;;;;;;3.40;1.70;;;;;;;13.84;37.16;98845.28;5045129;28;20034;-59
2021/05/05 10:11:35;;;;;;;2.28;1.92;;;;;;;14.06;38.02;98851.13;5061823;28;20029;-59
2021/05/05 10:14:01;;;;;;;2.03;1.60;;;;;;;14.54;36.54;98898.25;5065269;28;20060;-59
2021/05/05 10:16:29;;;;;;;4.25;1.73;;;;;;;14.31;37.10;98845.56;5064855;28;20048;-58
2021/05/05 10:18:55;;;;;;;2.00;1.48;;;;;;;14.80;37.10;98888.28;5065326;28;20021;-59
2021/05/05 10:21:26;;;;;;;2.55;1.90;;;;;;;14.57;37.97;98879.84;5048815;28;20021;-58
2021/05/05 10:23:56;;;;;;;2.65;1.80;;;;;;;14.78;36.91;98900.59;5044987;28;20195;-58
2021/05/05 10:26:22;;;;;;;2.78;1.52;;;;;;;14.97;38.50;98895.25;5044894;28;20026;-59
2021/05/05 10:28:49;;;;;;;3.45;1.60;;;;;;;15.38;37.19;98886.97;5043667;28;20221;-59
2021/05/05 10:31:19;;;;;;;3.85;1.88;;;;;;;15.30;36.97;98896.97;5059397;28;20025;-58
2021/05/05 10:33:47;;;;;;;3.38;1.75;;;;;;;15.37;37.82;98895.72;5064490;28;20052;-59
2021/05/05 10:36:40;;;;;;;3.17;2.10;;;;;;;15.28;36.67;98891.03;5064518;28;20024;-59
2021/05/05 10:39:06;;;;;;;3.70;1.77;;;;;;;15.14;35.91;98892.56;5064441;28;20033;-57
2021/05/05 10:41:34;;;;;;;1.65;1.55;;;;;;;15.08;36.67;98890.31;5047381;28;20055;-59
2021/05/05 10:43:59;;;;;;;2.63;1.65;;;;;;;15.16;36.69;98890.75;5044825;28;20025;-59
2021/05/05 10:46:29;;;;;;;1.92;1.77;;;;;;;15.20;37.30;98899.22;5044407;28;20029;-58
2021/05/05 10:49:09;;;;;;;2.50;1.52;;;;;;;15.18;36.45;98895.88;5044535;28;20345;-59
2021/05/05 10:51:55;;;;;;;3.28;1.70;;;;;;;15.02;36.97;98875.81;5061302;28;20029;-58
2021/05/05 10:54:41;;;;;;;2.10;1.70;;;;;;;14.73;37.10;98881.72;5060175;28;20053;-59
2021/05/05 10:57:12;;;;;;;4.13;2.30;;;;;;;14.69;37.58;98890.63;5064137;28;20115;-59
2021/05/05 11:00:08;;;;;;;3.78;2.40;;;;;;;15.00;37.47;98887.25;5062902;28;20088;-59
2021/05/05 11:02:38;;;;;;;1.83;1.63;;;;;;;15.35;37.15;98887.97;5043865;28;20029;-59
2021/05/05 11:05:09;;;;;;;3.70;2.05;;;;;;;14.81;36.94;98882.16;5044462;28;20033;-58
2021/05/05 11:07:55;;;;;;;3.77;2.00;;;;;;;14.87;37.85;98881.84;5043975;28;20045;-59
2021/05/05 11:10:39;;;;;;;3.53;2.15;;;;;;;14.96;37.49;98888.34;5049019;28;20381;-60
2021/05/05 11:13:24;;;;;;;2.10;1.90;;;;;;;15.09;37.36;98875.50;5063519;28;20322;-58
2021/05/05 11:15:50;;;;;;;2.17;1.92;;;;;;;15.04;37.54;98885.34;5063475;28;20029;-58
2021/05/05 11:18:25;;;;;;;2.28;2.08;;;;;;;14.82;38.24;98887.31;5064058;28;20037;-58
2021/05/05 11:21:05;;;;;;;3.30;2.10;;;;;;;15.10;37.76;98877.19;5053403;28;20049;-58
2021/05/05 11:23:41;;;;;;;4.25;2.22;;;;;;;15.21;38.10;98882.66;5043635;28;20253;-59
2021/05/05 11:26:13;;;;;;;2.50;2.30;;;;;;;15.10;38.35;98879.78;5043849;28;20037;-60
2021/05/05 11:29:03;;;;;;;7.25;2.40;;;;;;;15.21;38.72;98880.06;5043708;28;20036;-59
2021/05/05 11:31:48;;;;;;;5.72;2.20;;;;;;;15.28;38.11;98878.81;5057700;28;20071;-59
2021/05/05 11:34:26;;;;;;;4.97;2.28;;;;;;;15.36;37.98;98878.38;5063553;28;20059;-59
2021/05/05 11:36:58;;;;;;;2.83;2.00;;;;;;;15.27;37.75;98878.88;5063292;28;20029;-59
2021/05/05 11:39:37;;;;;;;3.25;2.10;;;;;;;15.13;38.95;98880.44;5063372;28;20044;-60
2021/05/05 11:42:26;;;;;;;3.60;2.05;;;;;;;14.48;38.52;98834.28;5043627;28;20029;-58
2021/05/05 11:45:00;;;;;;;4.60;2.10;;;;;;;14.90;38.32;98886.06;5043589;28;20038;-58
2021/05/05 11:47:27;;;;;;;4.45;1.95;;;;;;;14.77;38.94;98838.94;5043393;28;20030;-59
2021/05/05 11:50:00;;;;;;;4.22;1.85;;;;;;;14.82;39.27;98839.50;5044780;28;20049;-59
2021/05/05 11:52:44;;;;;;;3.55;2.17;;;;;;;15.07;39.25;98900.81;5063228;28;20043;-59